Time;durP1;ratioP1;P1;durP2;ratioP2;P2;SDS_P1;SDS_P2;PMS_P1;PMS_P2;Temp;Humidity;BMP_temperature;BMP_pressure;BME280_temperature;BME280_humidity;BME280_pressure;Samples;Min_cycle;Max_cycle;Signal;HPM_P1;HPM_P2
2022/11/11 00:01:13;;;;;;;1.77;0.90;;;;;;;18.75;55.70;102454.09;4981283;28;20041;-39
2022/11/11 00:03:38;;;;;;;2.50;1.30;;;;;;;18.74;55.46;102463.75;4990694;28;20041;-40
2022/11/11 00:06:06;;;;;;;2.78;1.38;;;;;;;18.74;55.65;102469.00;4994955;28;20029;-39
2022/11/11 00:08:31;;;;;;;2.22;1.33;;;;;;;18.73;55.59;102463.78;4992326;28;20034;-39
2022/11/11 00:11:01;;;;;;;2.22;1.40;;;;;;;18.74;55.96;102458.47;4995625;28;20702;-38
2022/11/11 00:13:27;;;;;;;3.40;1.25;;;;;;;18.73;55.69;102448.84;4997989;28;20042;-39
2022/11/11 00:15:53;;;;;;;4.07;1.20;;;;;;;18.73;55.45;102446.22;4993396;28;20056;-38
2022/11/11 00:26:30;;;;;;;3.20;1.17;;;;;;;18.72;55.36;102430.47;4997886;28;20053;-38
2022/11/11 00:28:55;;;;;;;1.38;0.88;;;;;;;18.71;55.56;102440.13;4997696;28;20046;-39
2022/11/11 00:31:21;;;;;;;2.42;1.10;;;;;;;18.71;55.43;102434.88;4990808;28;20191;-39
2022/11/11 00:33:46;;;;;;;1.77;1.13;;;;;;;18.72;55.55;102446.28;4996562;28;20041;-39
2022/11/11 00:36:11;;;;;;;2.53;1.23;;;;;;;18.71;55.63;102445.41;4996597;28;20052;-39
2022/11/11 00:38:46;;;;;;;3.20;1.65;;;;;;;18.72;55.60;102448.91;4997920;28;20038;-39
2022/11/11 00:41:13;;;;;;;1.80;1.20;;;;;;;18.70;55.61;102443.66;4994702;28;20030;-39
2022/11/11 00:43:39;;;;;;;1.50;1.00;;;;;;;18.70;55.50;102443.66;4996788;28;20044;-39
2022/11/11 00:51:33;;;;;;;5.72;1.38;;;;;;;18.69;55.50;102447.19;4998943;28;20045;-39
2022/11/11 00:53:59;;;;;;;4.78;1.10;;;;;;;18.69;55.39;102457.72;4999165;28;20061;-38
2022/11/11 00:56:24;;;;;;;3.30;1.20;;;;;;;18.68;55.51;102462.16;4994053;28;20084;-38
2022/11/11 00:58:50;;;;;;;3.08;1.63;;;;;;;18.69;55.49;102471.75;5010766;28;20489;-39
2022/11/11 01:01:16;;;;;;;2.78;1.20;;;;;;;18.69;55.45;102479.66;4995434;28;20050;-38
2022/11/11 01:03:41;;;;;;;2.33;1.02;;;;;;;18.70;55.55;102485.78;4991174;28;20152;-39
2022/11/11 01:06:08;;;;;;;4.78;1.20;;;;;;;18.70;55.48;102491.06;4994136;28;20752;-39
2022/11/11 01:08:33;;;;;;;2.42;1.10;;;;;;;18.68;55.44;102493.75;4993087;28;20045;-39
2022/11/11 01:10:59;;;;;;;1.40;0.80;;;;;;;18.67;55.50;102492.00;4995944;28;20084;-39
2022/11/11 01:13:27;;;;;;;2.42;1.17;;;;;;;18.70;55.31;102496.31;4999422;28;20137;-39
2022/11/11 01:15:58;;;;;;;3.20;1.30;;;;;;;18.69;55.43;102497.22;4993310;28;20038;-39
2022/11/11 01:18:25;;;;;;;3.13;1.35;;;;;;;18.68;55.49;102493.75;4997442;28;20064;-39
2022/11/11 01:20:58;;;;;;;1.40;0.98;;;;;;;18.67;55.39;102488.50;5000552;28;20037;-39
2022/11/11 01:23:24;;;;;;;2.22;1.40;;;;;;;18.66;55.27;102481.50;5002791;28;20132;-38
2022/11/11 01:25:51;;;;;;;2.45;1.20;;;;;;;18.66;55.43;102486.75;4982110;28;20038;-38
2022/11/11 01:28:17;;;;;;;2.83;1.25;;;;;;;18.66;55.40;102486.75;4995680;28;20514;-39
2022/11/11 01:30:43;;;;;;;2.58;1.40;;;;;;;18.66;55.20;102486.75;4998332;28;20120;-38
2022/11/11 01:33:09;;;;;;;2.08;1.10;;;;;;;18.65;55.37;102472.75;4994422;28;20790;-39
2022/11/11 01:35:38;;;;;;;3.05;1.35;;;;;;;18.65;55.24;102482.44;4994178;28;20038;-39
2022/11/11 01:38:03;;;;;;;3.83;1.35;;;;;;;18.65;55.29;102487.69;4997458;28;20065;-39
2022/11/11 01:40:28;;;;;;;5.20;1.67;;;;;;;18.65;55.43;102491.19;4997276;28;20503;-38
2022/11/11 01:43:03;;;;;;;3.38;1.25;;;;;;;18.65;55.27;102488.56;4998758;28;20048;-39
2022/11/11 01:45:46;;;;;;;;;;;;;;;18.63;55.34;102479.81;4997958;28;20092;-38
2022/11/11 01:51:15;;;;;;;2.63;1.23;;;;;;;18.63;55.33;102482.44;4995311;28;20692;-39
2022/11/11 01:53:41;;;;;;;2.80;1.20;;;;;;;18.63;55.20;102487.72;4996245;28;20052;-38
2022/11/11 01:56:08;;;;;;;2.63;1.27;;;;;;;18.63;55.33;102494.75;4996755;28;20042;-38
2022/11/11 01:58:34;;;;;;;2.60;1.15;;;;;;;18.64;55.17;102488.59;4995377;28;20050;-39
2022/11/11 02:00:59;;;;;;;2.30;1.27;;;;;;;18.63;55.28;102485.09;4993334;28;20034;-39
2022/11/11 02:03:29;;;;;;;2.70;1.38;;;;;;;18.61;55.13;102494.81;4995083;28;20046;-38
2022/11/11 02:05:56;;;;;;;4.85;1.25;;;;;;;18.62;55.12;102496.53;4999739;28;20414;-38
2022/11/11 02:08:33;;;;;;;2.35;1.30;;;;;;;18.61;55.23;102492.16;4979813;28;20050;-38
2022/11/11 02:11:04;;;;;;;3.65;1.67;;;;;;;18.61;55.27;102484.28;4995638;28;20042;-39
2022/11/11 02:16:14;;;;;;;1.63;1.05;;;;;;;18.61;55.21;102484.28;4996952;28;20076;-38
2022/11/11 02:18:42;;;;;;;1.98;1.23;;;;;;;18.60;55.09;102489.59;4996591;28;20121;-39
2022/11/11 02:21:12;;;;;;;2.25;1.00;;;;;;;18.61;54.99;102491.28;4994939;28;20038;-38
2022/11/11 02:23:47;;;;;;;2.15;1.17;;;;;;;18.59;55.10;102480.81;4987012;28;20037;-39
2022/11/11 02:26:16;;;;;;;2.35;1.23;;;;;;;18.61;55.24;102483.41;4993795;28;20045;-38
2022/11/11 02:28:42;;;;;;;2.58;1.38;;;;;;;18.61;55.08;102486.03;4995193;28;20031;-39
2022/11/11 02:31:08;;;;;;;2.40;1.20;;;;;;;18.60;55.17;102485.16;4994021;28;20527;-38
2022/11/11 02:33:34;;;;;;;1.83;1.05;;;;;;;18.60;55.24;102476.44;4991075;28;20435;-44
2022/11/11 02:36:01;;;;;;;3.40;1.60;;;;;;;18.59;55.21;102480.81;4995777;28;20491;-39
2022/11/11 02:38:28;;;;;;;1.60;1.02;;;;;;;18.60;55.51;102476.44;4995702;28;20133;-39
2022/11/11 02:43:37;;;;;;;2.37;1.30;;;;;;;18.59;55.16;102487.84;5001856;28;20037;-38
2022/11/11 02:46:05;;;;;;;1.73;1.13;;;;;;;18.59;55.22;102487.84;4997632;28;20034;-38
2022/11/11 02:48:30;;;;;;;1.85;0.95;;;;;;;18.58;55.22;102486.13;4993182;28;20045;-39
2022/11/11 02:50:56;;;;;;;2.03;1.25;;;;;;;18.58;55.09;102486.13;4994026;28;20046;-39
2022/11/11 02:53:22;;;;;;;1.88;1.00;;;;;;;18.58;55.04;102481.72;4998299;28;20053;-39
2022/11/11 02:55:47;;;;;;;1.42;0.93;;;;;;;18.58;55.24;102491.38;4994198;28;20034;-39
2022/11/11 02:58:14;;;;;;;1.20;0.82;;;;;;;18.57;55.19;102479.16;4993849;28;20037;-38
2022/11/11 03:00:40;;;;;;;3.42;1.30;;;;;;;18.58;55.04;102481.72;4993631;28;20095;-39
2022/11/11 03:03:05;;;;;;;1.70;1.10;;;;;;;18.57;55.02;102484.41;4996159;28;20497;-38
2022/11/11 03:05:31;;;;;;;2.40;1.35;;;;;;;18.57;55.09;102479.16;5000031;28;20645;-39
2022/11/11 03:07:56;;;;;;;1.70;1.20;;;;;;;18.58;55.10;102475.59;5002810;28;20125;-39
2022/11/11 03:10:21;;;;;;;3.00;1.30;;;;;;;18.56;54.89;102480.91;4994527;28;20038;-39
2022/11/11 03:12:47;;;;;;;1.90;1.30;;;;;;;18.57;55.15;102476.50;4998619;28;20495;-38
2022/11/11 03:15:12;;;;;;;1.42;1.30;;;;;;;18.55;55.02;102476.53;4998685;28;20612;-38
2022/11/11 03:17:38;;;;;;;2.55;1.25;;;;;;;18.56;55.15;102475.66;4997538;28;21162;-39
2022/11/11 03:23:07;;;;;;;2.70;1.40;;;;;;;18.56;55.02;102474.78;4997072;28;20137;-39
2022/11/11 03:25:39;;;;;;;1.85;1.20;;;;;;;18.57;54.97;102476.50;4998242;28;20042;-38
2022/11/11 03:28:04;;;;;;;1.88;1.30;;;;;;;18.56;54.97;102482.69;4999511;28;20038;-39
2022/11/11 03:30:30;;;;;;;2.03;1.30;;;;;;;18.56;55.17;102480.03;4985766;28;20475;-39
2022/11/11 03:32:55;;;;;;;2.25;1.35;;;;;;;18.55;55.18;102481.81;4993777;28;20049;-38
2022/11/11 03:35:21;;;;;;;1.33;0.93;;;;;;;18.55;55.04;102494.97;4994392;28;20044;-38
2022/11/11 03:40:30;;;;;;;1.95;1.13;;;;;;;18.56;54.84;102495.84;4997870;28;20065;-38
2022/11/11 03:42:55;;;;;;;1.70;1.02;;;;;;;18.55;55.04;102492.34;5001704;28;20042;-39
2022/11/11 03:45:20;;;;;;;2.60;1.23;;;;;;;18.54;55.04;102501.13;5003713;28;20021;-38
2022/11/11 03:47:46;;;;;;;1.58;1.10;;;;;;;18.55;54.93;102494.09;4994738;28;20286;-39
2022/11/11 03:50:11;;;;;;;1.50;1.00;;;;;;;18.53;54.96;102494.16;5000660;28;20046;-39
2022/11/11 03:52:42;;;;;;;1.98;1.10;;;;;;;18.55;55.10;102494.09;4996953;28;20042;-39
2022/11/11 03:55:07;;;;;;;2.47;1.30;;;;;;;18.54;55.21;102495.03;4997182;28;20108;-39
2022/11/11 03:57:33;;;;;;;2.33;1.27;;;;;;;18.54;55.05;102495.84;4998236;28;20033;-44
2022/11/11 03:59:58;;;;;;;1.70;1.08;;;;;;;18.54;54.91;102500.28;5003334;28;20058;-38
2022/11/11 04:10:36;;;;;;;1.65;1.20;;;;;;;18.52;55.05;102502.06;4999389;28;20048;-38
2022/11/11 04:23:58;;;;;;;1.33;1.10;;;;;;;18.50;55.03;102482.84;4990849;28;20483;-44
2022/11/11 04:26:23;;;;;;;1.90;1.10;;;;;;;18.49;55.02;102489.88;4997634;28;20037;-47
2022/11/11 04:31:32;;;;;;;2.72;1.30;;;;;;;18.50;54.97;102475.81;4993906;28;20045;-45
2022/11/11 04:33:57;;;;;;;1.55;1.30;;;;;;;18.50;54.86;102493.38;4990723;28;20042;-39
2022/11/11 04:36:23;;;;;;;2.58;1.10;;;;;;;18.50;54.94;102491.59;4998838;28;20132;-38
2022/11/11 04:41:32;;;;;;;2.20;1.27;;;;;;;18.50;54.85;102490.72;4995817;28;20048;-39
2022/11/11 04:46:41;;;;;;;2.13;1.13;;;;;;;18.49;54.82;102489.00;4994827;28;20106;-46
2022/11/11 04:49:06;;;;;;;1.33;1.00;;;;;;;18.49;54.92;102479.34;4993147;28;20491;-48
2022/11/11 04:52:25;;;;;;;2.08;1.30;;;;;;;18.49;54.98;102494.25;5000523;28;20340;-49
2022/11/11 04:54:17;;;;;;;1.42;1.10;;;;;;;18.48;54.91;102488.13;4998698;28;20049;-42
2022/11/11 04:56:49;;;;;;;2.53;1.20;;;;;;;18.50;55.01;102494.22;4990734;28;20096;-42
2022/11/11 04:59:18;;;;;;;1.88;1.10;;;;;;;18.50;54.83;102498.63;4997776;28;20041;-42
2022/11/11 05:04:28;;;;;;;1.42;1.05;;;;;;;18.47;54.66;102499.56;4995135;28;20099;-42
2022/11/11 05:09:37;;;;;;;1.70;1.40;;;;;;;18.47;54.83;102491.69;4997515;28;20485;-43
2022/11/11 05:12:06;;;;;;;2.13;1.20;;;;;;;18.48;54.85;102500.44;4999083;28;20038;-42
2022/11/11 05:22:43;;;;;;;3.30;1.60;;;;;;;18.47;54.92;102515.38;4996591;28;20064;-42
2022/11/11 05:25:28;;;;;;;2.92;1.05;;;;;;;18.46;54.86;102510.13;4998231;28;20030;-42
2022/11/11 05:27:56;;;;;;;1.55;1.10;;;;;;;18.46;54.84;102511.00;4998310;28;20038;-42
2022/11/11 05:30:23;;;;;;;1.60;1.15;;;;;;;18.45;54.84;102506.63;5001877;28;20037;-42
2022/11/11 05:32:49;;;;;;;4.28;1.40;;;;;;;18.46;54.95;102503.09;4993303;28;20088;-42
2022/11/11 05:35:15;;;;;;;1.73;1.13;;;;;;;18.45;54.70;102498.72;4999295;28;20497;-43
2022/11/11 05:37:41;;;;;;;2.20;1.55;;;;;;;18.44;54.80;102498.75;4982074;28;20033;-42
2022/11/11 05:40:08;;;;;;;2.20;1.23;;;;;;;18.45;54.85;102503.13;5000287;28;20076;-41
2022/11/11 05:42:34;;;;;;;3.72;1.10;;;;;;;18.44;54.75;102496.13;4983755;28;20037;-43
2022/11/11 05:44:59;;;;;;;2.28;1.30;;;;;;;18.43;54.66;102497.88;5000751;28;20037;-41
2022/11/11 05:47:25;;;;;;;2.10;1.50;;;;;;;18.43;54.90;102500.50;4998542;28;20038;-42
2022/11/11 05:49:50;;;;;;;1.73;1.00;;;;;;;18.47;54.82;102502.22;4995371;28;20102;-42
2022/11/11 05:52:16;;;;;;;2.05;1.35;;;;;;;18.50;54.86;102504.75;4999328;28;20081;-42
2022/11/11 05:54:46;;;;;;;1.95;1.33;;;;;;;18.54;54.80;102505.53;4999138;28;20183;-42
2022/11/11 05:57:11;;;;;;;2.33;1.20;;;;;;;18.57;54.70;102506.31;4990407;28;20427;-42
2022/11/11 05:59:37;;;;;;;2.22;1.23;;;;;;;18.60;54.73;102508.03;4994005;28;20045;-41
2022/11/11 06:02:02;;;;;;;2.38;1.10;;;;;;;18.63;54.70;102510.53;4993852;28;20148;-42
2022/11/11 06:04:28;;;;;;;1.45;1.10;;;;;;;18.67;54.67;102517.47;4998269;28;20033;-42
2022/11/11 06:06:54;;;;;;;3.30;1.58;;;;;;;18.68;54.56;102527.09;4998287;28;20049;-42
2022/11/11 06:09:20;;;;;;;1.52;1.17;;;;;;;18.72;54.30;102525.25;4997430;28;20737;-42
2022/11/11 06:11:46;;;;;;;1.88;1.23;;;;;;;18.72;54.51;102530.50;4992956;28;21732;-42
2022/11/11 06:14:11;;;;;;;1.60;1.30;;;;;;;18.75;54.33;102531.28;4994094;28;20662;-45
2022/11/11 06:16:36;;;;;;;2.95;1.30;;;;;;;18.71;54.35;102534.91;5002746;28;20046;-46
2022/11/11 06:19:03;;;;;;;1.40;1.00;;;;;;;18.69;54.87;102536.69;4998134;28;20050;-43
2022/11/11 06:21:29;;;;;;;1.65;1.23;;;;;;;18.70;54.68;102534.03;4995316;28;20034;-43
2022/11/11 06:23:55;;;;;;;5.47;1.65;;;;;;;18.87;55.10;102536.19;4994701;28;20109;-40
2022/11/11 06:26:20;;;;;;;3.35;1.02;;;;;;;18.98;55.28;102535.94;4982931;28;20398;-40
2022/11/11 06:28:56;;;;;;;4.07;1.48;;;;;;;19.05;54.76;102540.09;4998776;28;20133;-41
2022/11/11 06:31:24;;;;;;;2.60;1.33;;;;;;;19.08;54.63;102550.53;4992788;28;20045;-42
2022/11/11 06:33:50;;;;;;;2.03;1.25;;;;;;;19.12;54.48;102544.28;4996321;28;20096;-41
2022/11/11 06:36:17;;;;;;;4.32;1.55;;;;;;;19.08;54.79;102556.69;4993601;28;20052;-41
2022/11/11 06:38:43;;;;;;;3.67;1.10;;;;;;;19.16;54.71;102559.94;4994010;28;20589;-40
2022/11/11 06:41:11;;;;;;;3.10;1.25;;;;;;;19.22;54.29;102556.31;4996068;28;20072;-41
2022/11/11 06:43:41;;;;;;;4.72;1.50;;;;;;;19.24;54.41;102558.00;5000221;28;20044;-41
2022/11/11 06:46:12;;;;;;;3.78;1.10;;;;;;;19.38;54.03;102564.66;4988880;28;20115;-41
2022/11/11 06:48:41;;;;;;;2.53;1.30;;;;;;;19.47;54.47;102567.88;4991299;28;20041;-42
2022/11/11 06:51:06;;;;;;;4.85;1.40;;;;;;;19.52;53.84;102568.59;4985402;28;20030;-41
2022/11/11 06:53:32;;;;;;;1.55;1.00;;;;;;;19.53;53.85;102564.19;4996320;28;20045;-44
2022/11/11 06:55:58;;;;;;;2.38;1.30;;;;;;;19.48;54.38;102568.75;4992679;28;20049;-40
2022/11/11 06:58:23;;;;;;;2.75;1.35;;;;;;;19.50;53.99;102567.78;5000552;28;20042;-41
2022/11/11 07:00:49;;;;;;;4.45;1.55;;;;;;;19.44;54.33;102572.38;4999064;28;20068;-39
2022/11/11 07:03:17;;;;;;;2.50;1.17;;;;;;;19.43;54.32;102578.56;4998394;28;20101;-38
2022/11/11 07:05:43;;;;;;;2.95;1.30;;;;;;;19.41;54.55;102586.50;4999875;28;20065;-39
2022/11/11 07:08:11;;;;;;;3.70;1.33;;;;;;;19.23;55.36;102595.78;4998373;28;20038;-39
2022/11/11 07:10:41;;;;;;;2.97;0.98;;;;;;;19.25;54.96;102579.94;4995956;28;20042;-40
2022/11/11 07:13:08;;;;;;;2.38;1.45;;;;;;;19.36;54.54;102574.38;4999781;28;20951;-39
2022/11/11 07:15:33;;;;;;;5.45;1.80;;;;;;;19.40;54.38;102576.03;4997088;28;21172;-39
2022/11/11 07:17:59;;;;;;;3.70;1.42;;;;;;;19.35;54.69;102577.91;4996471;28;20053;-41
2022/11/11 07:20:24;;;;;;;3.05;1.48;;;;;;;19.32;55.12;102572.72;4997443;28;20196;-44
2022/11/11 07:22:50;;;;;;;3.70;1.60;;;;;;;19.33;55.57;102587.63;4980705;28;20392;-45
2022/11/11 07:25:15;;;;;;;2.55;1.08;;;;;;;19.49;55.59;102588.94;4996797;28;20740;-44
2022/11/11 07:27:41;;;;;;;4.55;1.27;;;;;;;19.48;55.79;102585.44;4996948;28;20112;-43
2022/11/11 07:30:08;;;;;;;4.15;1.20;;;;;;;19.28;54.95;102579.88;4997567;28;20133;-43
2022/11/11 07:32:33;;;;;;;3.97;1.50;;;;;;;19.21;55.20;102584.41;4993013;28;20037;-41
2022/11/11 07:34:59;;;;;;;5.95;1.20;;;;;;;19.43;55.01;102586.47;4998265;28;20050;-43
2022/11/11 07:37:24;;;;;;;2.33;1.50;;;;;;;19.34;56.18;102589.38;5002845;28;20121;-45
2022/11/11 07:39:50;;;;;;;3.25;1.20;;;;;;;19.39;56.72;102582.19;5001853;28;20053;-41
2022/11/11 07:42:15;;;;;;;3.03;1.85;;;;;;;19.33;56.77;102587.63;4989588;28;20060;-44
2022/11/11 07:44:41;;;;;;;4.45;1.63;;;;;;;19.26;55.36;102587.78;4991711;28;20044;-43
2022/11/11 07:47:07;;;;;;;3.63;1.20;;;;;;;19.41;55.38;102593.53;5003685;28;20145;-46
2022/11/11 07:49:32;;;;;;;3.58;1.45;;;;;;;19.41;56.61;102604.97;4996194;28;20052;-46
2022/11/11 07:51:58;;;;;;;4.18;1.30;;;;;;;19.47;56.63;102596.88;5000141;28;20044;-40
2022/11/11 07:54:23;;;;;;;5.90;1.48;;;;;;;19.60;56.76;102598.25;5002168;28;20790;-44
2022/11/11 07:56:49;;;;;;;6.20;1.45;;;;;;;19.56;57.19;102596.59;5004143;28;20037;-44
2022/11/11 07:59:14;;;;;;;7.93;1.98;;;;;;;19.60;57.93;102603.53;5002400;28;20503;-41
2022/11/11 08:01:39;;;;;;;6.85;1.92;;;;;;;19.64;57.38;102607.78;4993378;28;20123;-45
2022/11/11 08:04:05;;;;;;;4.97;1.50;;;;;;;19.67;57.28;102607.69;4981323;28;20818;-51
2022/11/11 08:06:30;;;;;;;5.15;1.60;;;;;;;19.59;57.33;102614.97;4996001;28;20036;-49
2022/11/11 08:08:56;;;;;;;6.78;2.08;;;;;;;19.54;57.27;102616.03;4998358;28;20149;-47
2022/11/11 08:13:39;;;;;;;10.13;1.50;;;;;;;19.75;57.70;102625.94;4999642;28;20042;-49
2022/11/11 08:14:07;;;;;;;6.03;1.73;;;;;;;19.53;56.67;102628.34;4999577;28;20050;-49
2022/11/11 08:16:33;;;;;;;4.35;1.92;;;;;;;19.78;56.69;102633.75;4998477;28;20041;-56
2022/11/11 08:18:58;;;;;;;5.28;1.60;;;;;;;19.74;57.21;102638.25;4999552;28;20044;-55
2022/11/11 08:21:24;;;;;;;4.78;1.70;;;;;;;19.66;56.88;102634.13;5009731;28;20068;-50
2022/11/11 08:23:50;;;;;;;8.73;1.90;;;;;;;19.79;57.46;102635.47;5004051;28;20049;-52
2022/11/11 08:26:17;;;;;;;11.02;2.58;;;;;;;19.87;57.48;102636.13;4999544;28;20064;-50
2022/11/11 08:28:43;;;;;;;12.20;1.50;;;;;;;19.76;57.26;102633.78;5003810;28;20115;-55
2022/11/11 08:31:09;;;;;;;5.55;1.70;;;;;;;19.64;56.91;102634.16;4999755;28;20490;-52
2022/11/11 08:33:35;;;;;;;6.57;2.13;;;;;;;19.61;56.38;102636.88;4996530;28;20045;-54
2022/11/11 08:36:05;;;;;;;4.55;1.58;;;;;;;19.61;56.39;102633.41;4999521;28;20030;-47
2022/11/11 08:38:30;;;;;;;8.38;1.45;;;;;;;19.58;56.69;102631.69;5001145;28;20045;-48
2022/11/11 08:40:59;;;;;;;7.03;1.95;;;;;;;19.77;57.75;102632.03;4999290;28;20584;-47
2022/11/11 08:43:25;;;;;;;5.90;1.60;;;;;;;19.72;56.61;102629.53;4997098;28;20121;-46
2022/11/11 08:45:53;;;;;;;6.03;1.73;;;;;;;19.67;55.94;102628.78;4999518;28;20034;-51
2022/11/11 08:48:19;;;;;;;11.60;1.80;;;;;;;19.78;56.67;102636.41;4999065;28;20034;-46
2022/11/11 08:50:44;;;;;;;5.97;1.67;;;;;;;19.65;56.60;102635.88;4986554;28;20041;-47
2022/11/11 08:53:10;;;;;;;6.72;1.75;;;;;;;19.80;57.01;102642.47;4995596;28;20053;-50
2022/11/11 08:55:37;;;;;;;5.20;1.90;;;;;;;19.88;57.35;102645.75;4982371;28;20050;-49
2022/11/11 08:58:05;;;;;;;6.90;1.85;;;;;;;19.76;57.39;102640.84;5003592;28;20188;-56
2022/11/11 09:00:31;;;;;;;8.05;1.40;;;;;;;19.73;56.42;102638.28;4994781;28;20566;-55
2022/11/11 09:03:09;;;;;;;4.70;1.90;;;;;;;19.76;56.58;102644.34;4997071;28;20034;-52
2022/11/11 09:05:36;;;;;;;8.43;1.52;;;;;;;19.83;56.11;102645.03;4999960;28;20034;-48
2022/11/11 09:08:06;;;;;;;5.35;2.05;;;;;;;19.76;55.58;102635.56;4999976;28;20038;-50
2022/11/11 09:10:35;;;;;;;5.57;1.38;;;;;;;19.89;57.39;102643.97;5002196;28;20034;-51
2022/11/11 09:13:02;;;;;;;8.32;2.03;;;;;;;19.93;56.09;102645.63;5000513;28;20030;-51
2022/11/11 09:15:28;;;;;;;3.42;1.77;;;;;;;19.84;55.81;102645.91;5001849;28;20347;-45
2022/11/11 09:17:54;;;;;;;5.88;1.83;;;;;;;19.55;56.46;102652.88;4998508;28;20763;-50
2022/11/11 09:20:20;;;;;;;6.25;1.40;;;;;;;19.69;55.80;102655.13;4997801;28;20033;-46
2022/11/11 09:22:46;;;;;;;6.28;1.50;;;;;;;19.88;57.11;102653.66;4997714;28;20041;-49
2022/11/11 09:25:13;;;;;;;4.50;1.83;;;;;;;19.54;55.55;102653.78;4980487;28;20865;-48
2022/11/11 09:27:38;;;;;;;7.13;1.60;;;;;;;19.68;56.28;102656.88;4979551;28;20184;-54
2022/11/11 09:30:05;;;;;;;3.22;1.50;;;;;;;19.73;56.14;102657.63;4997677;28;20022;-55
2022/11/11 09:32:31;;;;;;;4.85;1.60;;;;;;;19.76;57.18;102662.78;4990116;28;20058;-54
2022/11/11 09:34:57;;;;;;;7.95;1.83;;;;;;;19.65;55.51;102658.75;4990417;28;20046;-47
2022/11/11 09:37:22;;;;;;;5.65;1.27;;;;;;;19.83;56.61;102658.22;4992699;28;20507;-48
2022/11/11 09:39:48;;;;;;;5.40;1.15;;;;;;;19.86;56.58;102665.16;4997211;28;20494;-48
2022/11/11 09:42:16;;;;;;;4.03;1.23;;;;;;;19.81;57.51;102662.69;5000199;28;20034;-49
2022/11/11 09:45:22;;;;;;;4.57;1.25;;;;;;;19.78;57.00;102662.78;4988161;28;20046;-45
2022/11/11 09:47:47;;;;;;;4.22;1.40;;;;;;;19.92;56.20;102668.50;4997612;28;20045;-53
2022/11/11 09:50:20;;;;;;;4.93;1.55;;;;;;;19.89;57.09;102665.06;4994267;28;20859;-52
2022/11/11 09:52:53;;;;;;;2.95;1.40;;;;;;;19.91;56.71;102664.13;4997913;28;20038;-53
2022/11/11 09:55:41;;;;;;;2.85;1.13;;;;;;;20.07;55.74;102657.47;4995110;28;20041;-51
2022/11/11 09:58:17;;;;;;;3.58;1.75;;;;;;;19.93;55.88;102661.44;4998091;28;20524;-51
2022/11/11 10:00:47;;;;;;;3.35;1.48;;;;;;;19.95;55.27;102660.47;5000665;28;20117;-51
2022/11/11 10:03:17;;;;;;;3.13;1.20;;;;;;;19.88;55.85;102650.19;4991790;28;20102;-51
2022/11/11 10:05:56;;;;;;;2.28;1.13;;;;;;;19.87;55.74;102653.72;5001000;28;20619;-46
2022/11/11 10:08:25;;;;;;;3.67;1.23;;;;;;;19.82;56.40;102651.19;4996755;28;20078;-49
2022/11/11 10:10:53;;;;;;;4.40;1.17;;;;;;;20.00;55.37;102655.94;5001574;28;20049;-47
2022/11/11 10:13:31;;;;;;;4.72;1.20;;;;;;;19.95;55.40;102652.56;5004373;28;20034;-49
2022/11/11 10:16:08;;;;;;;3.10;1.23;;;;;;;19.86;55.39;102647.56;5005203;28;20034;-49
2022/11/11 10:18:41;;;;;;;2.42;1.00;;;;;;;19.87;55.63;102648.44;5005199;28;20478;-47
2022/11/11 10:21:15;;;;;;;6.13;1.73;;;;;;;19.84;55.16;102640.63;5003002;28;20041;-50
2022/11/11 10:23:45;;;;;;;3.20;1.05;;;;;;;19.84;55.27;102637.97;5003273;28;20036;-51
2022/11/11 10:26:34;;;;;;;1.58;1.10;;;;;;;19.80;55.20;102637.19;5005076;28;20684;-46
2022/11/11 10:29:01;;;;;;;2.70;1.17;;;;;;;19.91;55.15;102634.22;5010827;28;20116;-46
2022/11/11 10:31:27;;;;;;;2.45;1.00;;;;;;;19.87;54.89;102638.75;4999331;28;20360;-49
2022/11/11 10:34:01;;;;;;;2.47;1.20;;;;;;;19.88;54.96;102642.28;5003243;28;20064;-47
2022/11/11 10:36:29;;;;;;;5.60;1.70;;;;;;;19.90;54.94;102640.44;5000752;28;20036;-47
2022/11/11 10:38:58;;;;;;;1.70;1.10;;;;;;;19.85;54.98;102640.56;5004397;28;20279;-47
2022/11/11 10:41:44;;;;;;;3.13;1.35;;;;;;;19.83;54.54;102641.53;5004697;28;20038;-47
2022/11/11 10:44:25;;;;;;;2.83;1.15;;;;;;;19.82;54.95;102640.66;4999324;28;20088;-48
2022/11/11 10:47:26;;;;;;;2.83;1.35;;;;;;;19.85;54.81;102639.72;5012525;28;20109;-49
2022/11/11 10:50:03;;;;;;;2.78;1.08;;;;;;;19.84;54.76;102637.97;4964567;28;20519;-44
2022/11/11 10:52:38;;;;;;;3.78;1.13;;;;;;;19.81;54.62;102638.94;4993760;28;20084;-45
2022/11/11 10:55:21;;;;;;;5.72;1.33;;;;;;;19.80;54.96;102637.19;4978737;28;20129;-46
2022/11/11 10:57:59;;;;;;;3.83;1.13;;;;;;;19.82;54.60;102632.75;4988044;28;20030;-46
2022/11/11 11:00:25;;;;;;;3.97;1.48;;;;;;;19.78;54.52;102626.72;4996876;28;20013;-45
2022/11/11 11:03:11;;;;;;;3.20;1.30;;;;;;;19.81;54.66;102628.41;4993913;28;20065;-45
2022/11/11 11:05:46;;;;;;;1.50;1.08;;;;;;;19.83;54.61;102618.66;4994804;28;20040;-47
2022/11/11 11:08:16;;;;;;;1.73;0.95;;;;;;;19.82;54.73;102629.25;5004591;28;20061;-50
2022/11/11 11:10:47;;;;;;;2.58;1.33;;;;;;;19.85;54.64;102624.72;5007453;28;20041;-47
2022/11/11 11:13:18;;;;;;;3.80;1.15;;;;;;;19.82;54.59;102626.63;5003970;28;20757;-49
2022/11/11 11:15:52;;;;;;;1.98;1.10;;;;;;;19.89;54.15;102625.50;4997780;28;20111;-50
2022/11/11 11:18:18;;;;;;;3.83;1.30;;;;;;;19.88;54.37;102624.63;5007213;28;20054;-48
2022/11/11 11:21:04;;;;;;;1.70;1.05;;;;;;;19.81;54.27;102617.84;4998685;28;20088;-49
2022/11/11 11:23:43;;;;;;;2.38;1.30;;;;;;;19.79;54.57;102622.28;5014159;28;20048;-51
2022/11/11 11:26:11;;;;;;;2.22;1.08;;;;;;;19.76;54.65;102612.69;5006551;28;20031;-47
2022/11/11 11:28:58;;;;;;;1.50;1.20;;;;;;;19.76;54.06;102611.81;4997598;28;20038;-48
2022/11/11 11:31:41;;;;;;;1.33;0.90;;;;;;;19.78;54.24;102602.13;5002176;28;20042;-48
2022/11/11 11:34:07;;;;;;;2.38;1.02;;;;;;;19.77;54.46;102605.66;4997176;28;20073;-40
2022/11/11 11:36:33;;;;;;;2.03;1.15;;;;;;;19.86;53.90;102604.50;4997013;28;20109;-41
2022/11/11 11:38:59;;;;;;;3.05;1.15;;;;;;;19.84;54.37;102606.34;4978785;28;20050;-40
2022/11/11 11:41:40;;;;;;;1.98;1.20;;;;;;;19.76;53.94;102610.06;4988400;28;20046;-40
2022/11/11 11:44:24;;;;;;;1.95;1.00;;;;;;;19.74;54.59;102611.88;4995767;28;20092;-46
2022/11/11 11:46:54;;;;;;;2.10;1.08;;;;;;;19.75;54.31;102604.84;4994368;28;20072;-46
2022/11/11 11:49:55;;;;;;;2.65;1.00;;;;;;;19.77;54.46;102605.66;4995902;28;20049;-47
2022/11/11 11:52:33;;;;;;;2.03;1.08;;;;;;;19.76;54.38;102598.63;4999244;28;20031;-48
2022/11/11 11:55:21;;;;;;;4.20;1.10;;;;;;;19.75;54.74;102602.22;5001081;28;20046;-48
2022/11/11 11:57:55;;;;;;;2.25;1.10;;;;;;;19.78;54.57;102600.34;4998527;28;20603;-46
2022/11/11 12:00:28;;;;;;;2.40;1.20;;;;;;;19.76;54.43;102603.91;4998865;28;20084;-49
2022/11/11 12:03:12;;;;;;;3.53;1.10;;;;;;;19.72;54.32;102595.25;5000358;28;20261;-46
2022/11/11 12:05:52;;;;;;;3.20;0.95;;;;;;;19.70;54.53;102594.41;5001223;28;20034;-49
2022/11/11 12:08:36;;;;;;;1.80;1.02;;;;;;;19.73;54.38;102588.19;4996730;28;20042;-49
2022/11/11 12:11:10;;;;;;;4.55;1.55;;;;;;;19.74;54.44;102580.25;4999184;28;20037;-49
2022/11/11 12:13:55;;;;;;;4.37;1.23;;;;;;;19.75;54.57;102578.47;4996706;28;20398;-48
2022/11/11 12:16:45;;;;;;;2.50;1.08;;;;;;;19.72;54.30;102581.19;4962893;28;20033;-51
2022/11/11 12:19:32;;;;;;;2.10;1.00;;;;;;;19.70;54.34;102583.00;5002510;28;20042;-50
2022/11/11 12:22:06;;;;;;;3.58;1.63;;;;;;;19.70;54.35;102583.88;4999569;28;20091;-43
2022/11/11 12:25:10;;;;;;;2.13;0.90;;;;;;;19.70;54.38;102578.59;4999206;28;20062;-46
2022/11/11 12:28:01;;;;;;;3.33;1.10;;;;;;;19.70;54.30;102575.97;5004767;28;20038;-44
2022/11/11 12:30:27;;;;;;;3.63;1.00;;;;;;;19.70;54.40;102577.72;4998606;28;20211;-44
2022/11/11 12:33:14;;;;;;;2.80;1.00;;;;;;;19.69;54.46;102571.63;5002711;28;20038;-43
2022/11/11 12:35:40;;;;;;;2.28;1.05;;;;;;;19.69;54.52;102557.56;5006529;28;20052;-40
2022/11/11 12:38:23;;;;;;;2.05;0.95;;;;;;;19.73;54.49;102565.31;5002332;28;20046;-40
2022/11/11 12:41:07;;;;;;;2.65;1.13;;;;;;;19.69;54.50;102565.47;4991202;28;20094;-40
2022/11/11 12:43:43;;;;;;;3.67;0.87;;;;;;;19.70;54.28;102561.91;4975676;28;20077;-40